sensor_id;sensor_type;location;lat;lon;timestamp;P1;durP1;ratioP1;P2;durP2;ratioP2
35462;SDS011;21578;47.892;9.970;2022-11-02T00:00:10;22.17;;;16.40;;
35462;SDS011;21578;47.892;9.970;2022-11-02T00:04:58;25.07;;;20.37;;
35462;SDS011;21578;47.892;9.970;2022-11-02T00:09:45;16.17;;;12.50;;
35462;SDS011;21578;47.892;9.970;2022-11-02T00:14:33;16.40;;;12.63;;
35462;SDS011;21578;47.892;9.970;2022-11-02T00:19:20;14.63;;;9.73;;
35462;SDS011;21578;47.892;9.970;2022-11-02T00:24:07;14.47;;;10.07;;
35462;SDS011;21578;47.892;9.970;2022-11-02T00:28:56;14.77;;;12.27;;
35462;SDS011;21578;47.892;9.970;2022-11-02T00:33:45;8.63;;;6.50;;
35462;SDS011;21578;47.892;9.970;2022-11-02T00:38:32;11.37;;;6.10;;
35462;SDS011;21578;47.892;9.970;2022-11-02T00:43:19;9.93;;;6.33;;
35462;SDS011;21578;47.892;9.970;2022-11-02T00:48:05;7.43;;;5.57;;
35462;SDS011;21578;47.892;9.970;2022-11-02T00:52:54;8.30;;;6.13;;
35462;SDS011;21578;47.892;9.970;2022-11-02T00:57:41;13.10;;;7.07;;
35462;SDS011;21578;47.892;9.970;2022-11-02T01:02:28;10.90;;;6.70;;
35462;SDS011;21578;47.892;9.970;2022-11-02T01:07:15;9.17;;;6.50;;
35462;SDS011;21578;47.892;9.970;2022-11-02T01:12:03;9.70;;;6.47;;
35462;SDS011;21578;47.892;9.970;2022-11-02T01:16:50;7.53;;;5.67;;
35462;SDS011;21578;47.892;9.970;2022-11-02T01:21:37;9.27;;;5.10;;
35462;SDS011;21578;47.892;9.970;2022-11-02T01:26:24;10.63;;;6.10;;
35462;SDS011;21578;47.892;9.970;2022-11-02T01:31:13;8.47;;;5.70;;
35462;SDS011;21578;47.892;9.970;2022-11-02T01:36:01;6.97;;;5.00;;
35462;SDS011;21578;47.892;9.970;2022-11-02T01:40:49;5.80;;;4.83;;
35462;SDS011;21578;47.892;9.970;2022-11-02T01:45:36;6.53;;;3.57;;
35462;SDS011;21578;47.892;9.970;2022-11-02T01:50:24;6.93;;;3.30;;
35462;SDS011;21578;47.892;9.970;2022-11-02T01:55:14;5.10;;;3.20;;
35462;SDS011;21578;47.892;9.970;2022-11-02T02:00:05;4.40;;;3.17;;
35462;SDS011;21578;47.892;9.970;2022-11-02T02:04:55;5.97;;;3.07;;
35462;SDS011;21578;47.892;9.970;2022-11-02T02:09:48;4.47;;;3.50;;
35462;SDS011;21578;47.892;9.970;2022-11-02T02:14:36;19.03;;;10.73;;
35462;SDS011;21578;47.892;9.970;2022-11-02T02:19:27;4.50;;;3.10;;
35462;SDS011;21578;47.892;9.970;2022-11-02T02:24:36;16.13;;;10.37;;
35462;SDS011;21578;47.892;9.970;2022-11-02T02:29:33;30.27;;;18.47;;
35462;SDS011;21578;47.892;9.970;2022-11-02T02:34:30;33.10;;;22.17;;
35462;SDS011;21578;47.892;9.970;2022-11-02T02:39:23;34.03;;;23.43;;
35462;SDS011;21578;47.892;9.970;2022-11-02T02:44:14;14.00;;;9.63;;
35462;SDS011;21578;47.892;9.970;2022-11-02T02:49:08;6.50;;;4.17;;
35462;SDS011;21578;47.892;9.970;2022-11-02T02:53:59;26.17;;;16.93;;
35462;SDS011;21578;47.892;9.970;2022-11-02T02:58:49;8.50;;;6.37;;
35462;SDS011;21578;47.892;9.970;2022-11-02T03:03:41;4.03;;;2.90;;
35462;SDS011;21578;47.892;9.970;2022-11-02T03:08:31;18.30;;;10.83;;
35462;SDS011;21578;47.892;9.970;2022-11-02T03:13:28;9.17;;;5.07;;
35462;SDS011;21578;47.892;9.970;2022-11-02T03:18:26;6.17;;;4.00;;
35462;SDS011;21578;47.892;9.970;2022-11-02T03:23:21;6.00;;;3.70;;
35462;SDS011;21578;47.892;9.970;2022-11-02T03:28:17;3.10;;;1.87;;
35462;SDS011;21578;47.892;9.970;2022-11-02T03:33:12;3.27;;;2.20;;
35462;SDS011;21578;47.892;9.970;2022-11-02T03:38:04;6.33;;;3.13;;
35462;SDS011;21578;47.892;9.970;2022-11-02T03:42:57;3.50;;;3.13;;
35462;SDS011;21578;47.892;9.970;2022-11-02T03:47:48;3.87;;;3.37;;
35462;SDS011;21578;47.892;9.970;2022-11-02T03:52:39;5.43;;;3.50;;
35462;SDS011;21578;47.892;9.970;2022-11-02T03:57:31;43.93;;;21.47;;
35462;SDS011;21578;47.892;9.970;2022-11-02T04:02:24;10.57;;;8.33;;
35462;SDS011;21578;47.892;9.970;2022-11-02T04:07:12;7.00;;;4.57;;
35462;SDS011;21578;47.892;9.970;2022-11-02T04:12:00;8.17;;;4.10;;
35462;SDS011;21578;47.892;9.970;2022-11-02T04:17:05;5.60;;;4.27;;
35462;SDS011;21578;47.892;9.970;2022-11-02T04:22:09;5.00;;;4.03;;
35462;SDS011;21578;47.892;9.970;2022-11-02T04:27:15;4.53;;;3.33;;
35462;SDS011;21578;47.892;9.970;2022-11-02T04:32:02;7.27;;;3.53;;
35462;SDS011;21578;47.892;9.970;2022-11-02T04:36:49;7.30;;;3.10;;
35462;SDS011;21578;47.892;9.970;2022-11-02T04:41:36;4.07;;;2.87;;
35462;SDS011;21578;47.892;9.970;2022-11-02T04:46:30;4.07;;;2.60;;
35462;SDS011;21578;47.892;9.970;2022-11-02T04:51:19;4.47;;;2.60;;
35462;SDS011;21578;47.892;9.970;2022-11-02T04:56:06;4.00;;;2.80;;
35462;SDS011;21578;47.892;9.970;2022-11-02T05:00:53;4.18;;;3.28;;
35462;SDS011;21578;47.892;9.970;2022-11-02T05:05:42;6.50;;;3.70;;
35462;SDS011;21578;47.892;9.970;2022-11-02T05:10:29;4.57;;;2.20;;
35462;SDS011;21578;47.892;9.970;2022-11-02T05:15:16;3.90;;;2.37;;
35462;SDS011;21578;47.892;9.970;2022-11-02T05:20:03;3.40;;;2.20;;
35462;SDS011;21578;47.892;9.970;2022-11-02T05:24:52;5.60;;;2.93;;
35462;SDS011;21578;47.892;9.970;2022-11-02T05:29:39;3.43;;;2.73;;
35462;SDS011;21578;47.892;9.970;2022-11-02T05:34:26;3.70;;;2.47;;
35462;SDS011;21578;47.892;9.970;2022-11-02T05:39:13;4.10;;;2.43;;
35462;SDS011;21578;47.892;9.970;2022-11-02T05:44:01;7.90;;;2.73;;
35462;SDS011;21578;47.892;9.970;2022-11-02T05:48:48;7.20;;;2.73;;
35462;SDS011;21578;47.892;9.970;2022-11-02T05:53:35;4.13;;;2.73;;
35462;SDS011;21578;47.892;9.970;2022-11-02T05:58:22;8.23;;;3.67;;
35462;SDS011;21578;47.892;9.970;2022-11-02T06:03:11;4.07;;;2.87;;
35462;SDS011;21578;47.892;9.970;2022-11-02T06:07:58;5.43;;;2.83;;
35462;SDS011;21578;47.892;9.970;2022-11-02T06:12:45;7.67;;;3.20;;
35462;SDS011;21578;47.892;9.970;2022-11-02T06:17:35;6.07;;;3.77;;
35462;SDS011;21578;47.892;9.970;2022-11-02T06:22:24;8.87;;;3.60;;
35462;SDS011;21578;47.892;9.970;2022-11-02T06:27:11;7.17;;;2.97;;
35462;SDS011;21578;47.892;9.970;2022-11-02T06:31:58;5.13;;;2.93;;
35462;SDS011;21578;47.892;9.970;2022-11-02T06:36:45;12.43;;;6.83;;
35462;SDS011;21578;47.892;9.970;2022-11-02T06:41:33;5.53;;;2.87;;
35462;SDS011;21578;47.892;9.970;2022-11-02T06:46:20;5.67;;;2.53;;
35462;SDS011;21578;47.892;9.970;2022-11-02T06:51:07;8.00;;;2.53;;
35462;SDS011;21578;47.892;9.970;2022-11-02T06:55:54;5.00;;;2.77;;
35462;SDS011;21578;47.892;9.970;2022-11-02T07:00:44;4.67;;;2.17;;
35462;SDS011;21578;47.892;9.970;2022-11-02T07:05:31;4.53;;;2.40;;
35462;SDS011;21578;47.892;9.970;2022-11-02T07:10:19;3.60;;;1.87;;
35462;SDS011;21578;47.892;9.970;2022-11-02T07:15:06;8.13;;;2.40;;
35462;SDS011;21578;47.892;9.970;2022-11-02T07:19:55;3.77;;;1.57;;
35462;SDS011;21578;47.892;9.970;2022-11-02T07:24:42;4.90;;;1.30;;
35462;SDS011;21578;47.892;9.970;2022-11-02T07:29:29;6.50;;;1.10;;
35462;SDS011;21578;47.892;9.970;2022-11-02T07:34:15;2.20;;;1.10;;
35462;SDS011;21578;47.892;9.970;2022-11-02T07:39:04;7.53;;;1.20;;
35462;SDS011;21578;47.892;9.970;2022-11-02T07:43:52;5.93;;;1.10;;
35462;SDS011;21578;47.892;9.970;2022-11-02T07:48:38;3.73;;;0.80;;
35462;SDS011;21578;47.892;9.970;2022-11-02T07:53:25;6.13;;;1.47;;
35462;SDS011;21578;47.892;9.970;2022-11-02T07:58:14;4.73;;;0.97;;
35462;SDS011;21578;47.892;9.970;2022-11-02T08:03:01;1.60;;;0.70;;
35462;SDS011;21578;47.892;9.970;2022-11-02T08:07:54;3.73;;;1.00;;
35462;SDS011;21578;47.892;9.970;2022-11-02T08:12:42;4.10;;;0.90;;
35462;SDS011;21578;47.892;9.970;2022-11-02T08:17:30;3.43;;;0.80;;
35462;SDS011;21578;47.892;9.970;2022-11-02T08:22:17;4.33;;;0.70;;
35462;SDS011;21578;47.892;9.970;2022-11-02T08:27:04;7.20;;;0.70;;
35462;SDS011;21578;47.892;9.970;2022-11-02T08:31:51;4.57;;;0.60;;
35462;SDS011;21578;47.892;9.970;2022-11-02T08:36:40;4.20;;;0.80;;
35462;SDS011;21578;47.892;9.970;2022-11-02T08:41:27;3.13;;;0.90;;
35462;SDS011;21578;47.892;9.970;2022-11-02T08:46:14;4.60;;;0.60;;
35462;SDS011;21578;47.892;9.970;2022-11-02T08:51:00;6.03;;;0.93;;
35462;SDS011;21578;47.892;9.970;2022-11-02T08:55:50;4.90;;;0.70;;
35462;SDS011;21578;47.892;9.970;2022-11-02T09:00:37;5.40;;;0.83;;
35462;SDS011;21578;47.892;9.970;2022-11-02T09:05:24;3.57;;;1.00;;
35462;SDS011;21578;47.892;9.970;2022-11-02T09:10:11;5.20;;;1.00;;
35462;SDS011;21578;47.892;9.970;2022-11-02T09:14:59;4.73;;;0.83;;
35462;SDS011;21578;47.892;9.970;2022-11-02T09:19:46;7.93;;;0.80;;
35462;SDS011;21578;47.892;9.970;2022-11-02T09:24:33;3.50;;;0.70;;
35462;SDS011;21578;47.892;9.970;2022-11-02T09:29:20;5.13;;;0.90;;
35462;SDS011;21578;47.892;9.970;2022-11-02T09:34:09;2.70;;;0.70;;
35462;SDS011;21578;47.892;9.970;2022-11-02T09:38:56;3.07;;;0.70;;
35462;SDS011;21578;47.892;9.970;2022-11-02T09:43:46;3.43;;;0.80;;
35462;SDS011;21578;47.892;9.970;2022-11-02T09:48:39;6.40;;;0.90;;
35462;SDS011;21578;47.892;9.970;2022-11-02T09:53:32;2.03;;;0.67;;
35462;SDS011;21578;47.892;9.970;2022-11-02T09:58:28;4.03;;;0.90;;
35462;SDS011;21578;47.892;9.970;2022-11-02T10:03:19;5.60;;;0.90;;
35462;SDS011;21578;47.892;9.970;2022-11-02T10:13:32;3.73;;;0.80;;
35462;SDS011;21578;47.892;9.970;2022-11-02T10:18:23;1.87;;;0.80;;
35462;SDS011;21578;47.892;9.970;2022-11-02T10:23:14;6.63;;;1.10;;
35462;SDS011;21578;47.892;9.970;2022-11-02T10:28:10;5.17;;;1.23;;
35462;SDS011;21578;47.892;9.970;2022-11-02T10:33:01;1.73;;;0.80;;
35462;SDS011;21578;47.892;9.970;2022-11-02T10:38:02;4.00;;;1.10;;
35462;SDS011;21578;47.892;9.970;2022-11-02T10:43:04;2.97;;;1.00;;
35462;SDS011;21578;47.892;9.970;2022-11-02T10:48:01;5.10;;;1.10;;
35462;SDS011;21578;47.892;9.970;2022-11-02T10:52:52;2.13;;;0.87;;
35462;SDS011;21578;47.892;9.970;2022-11-02T10:57:39;3.47;;;0.70;;
35462;SDS011;21578;47.892;9.970;2022-11-02T11:02:27;3.27;;;0.80;;
35462;SDS011;21578;47.892;9.970;2022-11-02T11:07:15;3.40;;;1.00;;
35462;SDS011;21578;47.892;9.970;2022-11-02T11:12:05;4.90;;;0.90;;
35462;SDS011;21578;47.892;9.970;2022-11-02T11:16:59;3.47;;;1.10;;
35462;SDS011;21578;47.892;9.970;2022-11-02T11:21:49;4.97;;;0.90;;
35462;SDS011;21578;47.892;9.970;2022-11-02T11:26:36;2.97;;;1.10;;
35462;SDS011;21578;47.892;9.970;2022-11-02T11:31:23;6.27;;;1.43;;
35462;SDS011;21578;47.892;9.970;2022-11-02T11:36:18;5.53;;;1.00;;
35462;SDS011;21578;47.892;9.970;2022-11-02T11:41:09;3.77;;;0.90;;
35462;SDS011;21578;47.892;9.970;2022-11-02T11:45:58;2.50;;;0.87;;
35462;SDS011;21578;47.892;9.970;2022-11-02T11:50:46;3.80;;;1.00;;
35462;SDS011;21578;47.892;9.970;2022-11-02T11:55:34;2.47;;;0.90;;
35462;SDS011;21578;47.892;9.970;2022-11-02T12:00:33;3.20;;;1.13;;
35462;SDS011;21578;47.892;9.970;2022-11-02T12:05:20;7.47;;;1.40;;
35462;SDS011;21578;47.892;9.970;2022-11-02T12:10:09;5.50;;;1.47;;
35462;SDS011;21578;47.892;9.970;2022-11-02T12:15:04;4.47;;;1.50;;
35462;SDS011;21578;47.892;9.970;2022-11-02T12:20:05;5.87;;;1.00;;
35462;SDS011;21578;47.892;9.970;2022-11-02T12:25:05;4.53;;;1.10;;
35462;SDS011;21578;47.892;9.970;2022-11-02T12:30:09;3.77;;;1.23;;
35462;SDS011;21578;47.892;9.970;2022-11-02T12:35:04;4.30;;;1.03;;
35462;SDS011;21578;47.892;9.970;2022-11-02T12:40:06;3.77;;;1.10;;
35462;SDS011;21578;47.892;9.970;2022-11-02T12:45:10;3.60;;;0.87;;
35462;SDS011;21578;47.892;9.970;2022-11-02T12:50:10;1.67;;;0.90;;
35462;SDS011;21578;47.892;9.970;2022-11-02T12:55:03;5.60;;;0.80;;
35462;SDS011;21578;47.892;9.970;2022-11-02T12:59:59;3.87;;;0.90;;
35462;SDS011;21578;47.892;9.970;2022-11-02T13:04:49;4.47;;;1.00;;
35462;SDS011;21578;47.892;9.970;2022-11-02T13:09:44;2.50;;;0.87;;
35462;SDS011;21578;47.892;9.970;2022-11-02T13:14:39;3.17;;;1.00;;
35462;SDS011;21578;47.892;9.970;2022-11-02T13:19:28;6.27;;;1.10;;
35462;SDS011;21578;47.892;9.970;2022-11-02T13:24:21;3.00;;;0.80;;
35462;SDS011;21578;47.892;9.970;2022-11-02T13:29:13;7.20;;;1.30;;
35462;SDS011;21578;47.892;9.970;2022-11-02T13:34:07;3.80;;;1.30;;
35462;SDS011;21578;47.892;9.970;2022-11-02T13:38:58;1.57;;;1.10;;
35462;SDS011;21578;47.892;9.970;2022-11-02T13:43:55;3.83;;;1.30;;
35462;SDS011;21578;47.892;9.970;2022-11-02T13:49:04;3.83;;;1.30;;
35462;SDS011;21578;47.892;9.970;2022-11-02T13:54:00;5.97;;;1.57;;
35462;SDS011;21578;47.892;9.970;2022-11-02T13:58:54;4.87;;;1.77;;
35462;SDS011;21578;47.892;9.970;2022-11-02T14:03:47;10.07;;;1.97;;
35462;SDS011;21578;47.892;9.970;2022-11-02T14:08:36;6.03;;;1.17;;
35462;SDS011;21578;47.892;9.970;2022-11-02T14:18:47;5.20;;;1.30;;
35462;SDS011;21578;47.892;9.970;2022-11-02T14:29:35;3.43;;;1.20;;
35462;SDS011;21578;47.892;9.970;2022-11-02T14:34:40;5.97;;;1.27;;
35462;SDS011;21578;47.892;9.970;2022-11-02T14:39:41;6.63;;;1.37;;
35462;SDS011;21578;47.892;9.970;2022-11-02T14:44:52;6.87;;;1.67;;
35462;SDS011;21578;47.892;9.970;2022-11-02T14:50:02;4.30;;;1.30;;
35462;SDS011;21578;47.892;9.970;2022-11-02T14:54:57;4.83;;;1.30;;
35462;SDS011;21578;47.892;9.970;2022-11-02T14:59:47;3.30;;;1.60;;
35462;SDS011;21578;47.892;9.970;2022-11-02T15:04:36;5.83;;;2.03;;
35462;SDS011;21578;47.892;9.970;2022-11-02T15:09:55;3.23;;;1.57;;
35462;SDS011;21578;47.892;9.970;2022-11-02T15:14:57;4.70;;;2.07;;
35462;SDS011;21578;47.892;9.970;2022-11-02T15:19:46;5.80;;;1.50;;
35462;SDS011;21578;47.892;9.970;2022-11-02T15:24:37;2.97;;;1.40;;
35462;SDS011;21578;47.892;9.970;2022-11-02T15:29:32;4.67;;;1.83;;
35462;SDS011;21578;47.892;9.970;2022-11-02T15:34:23;33.03;;;14.47;;
35462;SDS011;21578;47.892;9.970;2022-11-02T15:39:18;11.57;;;3.00;;
35462;SDS011;21578;47.892;9.970;2022-11-02T15:44:21;6.43;;;1.80;;
35462;SDS011;21578;47.892;9.970;2022-11-02T15:49:22;29.80;;;8.27;;
35462;SDS011;21578;47.892;9.970;2022-11-02T15:54:21;23.67;;;6.57;;
35462;SDS011;21578;47.892;9.970;2022-11-02T15:59:29;17.77;;;3.80;;
35462;SDS011;21578;47.892;9.970;2022-11-02T16:04:27;12.97;;;2.43;;
35462;SDS011;21578;47.892;9.970;2022-11-02T16:09:28;3.90;;;2.10;;
35462;SDS011;21578;47.892;9.970;2022-11-02T16:14:20;7.13;;;2.33;;
35462;SDS011;21578;47.892;9.970;2022-11-02T16:19:15;5.73;;;3.40;;
35462;SDS011;21578;47.892;9.970;2022-11-02T16:24:05;6.00;;;2.10;;
35462;SDS011;21578;47.892;9.970;2022-11-02T16:28:55;4.37;;;2.07;;
35462;SDS011;21578;47.892;9.970;2022-11-02T16:33:45;3.53;;;1.93;;
35462;SDS011;21578;47.892;9.970;2022-11-02T16:38:34;7.00;;;2.90;;
35462;SDS011;21578;47.892;9.970;2022-11-02T16:43:23;6.53;;;3.07;;
35462;SDS011;21578;47.892;9.970;2022-11-02T16:48:20;8.53;;;4.17;;
35462;SDS011;21578;47.892;9.970;2022-11-02T16:53:11;22.77;;;13.57;;
35462;SDS011;21578;47.892;9.970;2022-11-02T16:58:14;14.50;;;7.90;;
35462;SDS011;21578;47.892;9.970;2022-11-02T17:03:07;7.07;;;4.10;;
35462;SDS011;21578;47.892;9.970;2022-11-02T17:07:59;6.37;;;3.03;;
35462;SDS011;21578;47.892;9.970;2022-11-02T17:12:49;8.63;;;3.17;;
35462;SDS011;21578;47.892;9.970;2022-11-02T17:17:37;3.90;;;2.07;;
35462;SDS011;21578;47.892;9.970;2022-11-02T17:22:26;4.27;;;2.70;;
35462;SDS011;21578;47.892;9.970;2022-11-02T17:27:15;4.87;;;1.90;;
35462;SDS011;21578;47.892;9.970;2022-11-02T17:32:03;2.40;;;1.77;;
35462;SDS011;21578;47.892;9.970;2022-11-02T17:36:58;4.00;;;2.20;;
35462;SDS011;21578;47.892;9.970;2022-11-02T17:41:48;6.33;;;2.83;;
35462;SDS011;21578;47.892;9.970;2022-11-02T17:47:09;10.00;;;4.33;;
35462;SDS011;21578;47.892;9.970;2022-11-02T17:51:57;13.33;;;6.63;;
35462;SDS011;21578;47.892;9.970;2022-11-02T17:56:44;10.63;;;5.67;;
35462;SDS011;21578;47.892;9.970;2022-11-02T18:01:32;11.00;;;5.97;;
35462;SDS011;21578;47.892;9.970;2022-11-02T18:06:19;6.93;;;4.87;;
35462;SDS011;21578;47.892;9.970;2022-11-02T18:11:07;9.20;;;5.00;;
35462;SDS011;21578;47.892;9.970;2022-11-02T18:15:54;7.57;;;4.40;;
35462;SDS011;21578;47.892;9.970;2022-11-02T18:20:43;9.00;;;4.90;;
35462;SDS011;21578;47.892;9.970;2022-11-02T18:25:30;7.73;;;5.07;;
35462;SDS011;21578;47.892;9.970;2022-11-02T18:30:18;8.17;;;4.90;;
35462;SDS011;21578;47.892;9.970;2022-11-02T18:35:05;6.90;;;3.70;;
35462;SDS011;21578;47.892;9.970;2022-11-02T18:39:55;7.87;;;4.87;;
35462;SDS011;21578;47.892;9.970;2022-11-02T18:44:42;5.03;;;3.40;;
35462;SDS011;21578;47.892;9.970;2022-11-02T18:49:29;5.83;;;3.53;;
35462;SDS011;21578;47.892;9.970;2022-11-02T18:54:16;11.87;;;6.67;;
35462;SDS011;21578;47.892;9.970;2022-11-02T18:59:04;6.03;;;4.17;;
35462;SDS011;21578;47.892;9.970;2022-11-02T19:03:52;7.27;;;4.07;;
35462;SDS011;21578;47.892;9.970;2022-11-02T19:08:40;35.50;;;18.63;;
35462;SDS011;21578;47.892;9.970;2022-11-02T19:13:45;26.80;;;13.60;;
35462;SDS011;21578;47.892;9.970;2022-11-02T19:18:33;7.97;;;4.70;;
35462;SDS011;21578;47.892;9.970;2022-11-02T19:23:20;13.87;;;8.10;;
35462;SDS011;21578;47.892;9.970;2022-11-02T19:28:07;10.50;;;6.40;;
35462;SDS011;21578;47.892;9.970;2022-11-02T19:32:53;13.57;;;7.90;;
35462;SDS011;21578;47.892;9.970;2022-11-02T19:37:43;8.23;;;5.93;;
35462;SDS011;21578;47.892;9.970;2022-11-02T19:42:30;13.87;;;7.73;;
35462;SDS011;21578;47.892;9.970;2022-11-02T19:47:17;16.47;;;8.80;;
35462;SDS011;21578;47.892;9.970;2022-11-02T19:52:04;8.57;;;4.70;;
35462;SDS011;21578;47.892;9.970;2022-11-02T19:56:52;7.63;;;3.20;;
35462;SDS011;21578;47.892;9.970;2022-11-02T20:01:40;4.93;;;2.80;;
35462;SDS011;21578;47.892;9.970;2022-11-02T20:06:29;4.97;;;2.63;;
35462;SDS011;21578;47.892;9.970;2022-11-02T20:11:18;4.83;;;3.17;;
35462;SDS011;21578;47.892;9.970;2022-11-02T20:16:07;4.67;;;2.90;;
35462;SDS011;21578;47.892;9.970;2022-11-02T20:21:00;5.83;;;3.23;;
35462;SDS011;21578;47.892;9.970;2022-11-02T20:25:48;5.40;;;3.03;;
35462;SDS011;21578;47.892;9.970;2022-11-02T20:30:38;4.83;;;3.40;;
35462;SDS011;21578;47.892;9.970;2022-11-02T20:35:27;4.47;;;2.70;;
35462;SDS011;21578;47.892;9.970;2022-11-02T20:40:14;7.03;;;3.00;;
35462;SDS011;21578;47.892;9.970;2022-11-02T20:45:01;3.80;;;2.60;;
35462;SDS011;21578;47.892;9.970;2022-11-02T20:49:48;5.23;;;3.10;;
35462;SDS011;21578;47.892;9.970;2022-11-02T20:54:36;4.50;;;2.77;;
35462;SDS011;21578;47.892;9.970;2022-11-02T20:59:23;3.80;;;2.23;;
35462;SDS011;21578;47.892;9.970;2022-11-02T21:04:10;4.00;;;2.30;;
35462;SDS011;21578;47.892;9.970;2022-11-02T21:08:57;7.13;;;2.33;;
35462;SDS011;21578;47.892;9.970;2022-11-02T21:13:45;5.20;;;1.97;;
35462;SDS011;21578;47.892;9.970;2022-11-02T21:18:38;6.57;;;4.80;;
35462;SDS011;21578;47.892;9.970;2022-11-02T21:23:25;3.60;;;3.17;;
35462;SDS011;21578;47.892;9.970;2022-11-02T21:28:12;8.53;;;2.93;;
35462;SDS011;21578;47.892;9.970;2022-11-02T21:33:00;4.50;;;2.40;;
35462;SDS011;21578;47.892;9.970;2022-11-02T21:37:47;2.53;;;1.77;;
35462;SDS011;21578;47.892;9.970;2022-11-02T21:42:34;4.00;;;2.20;;
35462;SDS011;21578;47.892;9.970;2022-11-02T21:47:21;4.47;;;2.00;;
35462;SDS011;21578;47.892;9.970;2022-11-02T21:52:11;3.93;;;2.53;;
35462;SDS011;21578;47.892;9.970;2022-11-02T21:56:58;4.03;;;2.90;;
35462;SDS011;21578;47.892;9.970;2022-11-02T22:01:44;6.27;;;2.50;;
35462;SDS011;21578;47.892;9.970;2022-11-02T22:06:33;3.77;;;2.00;;
35462;SDS011;21578;47.892;9.970;2022-11-02T22:11:24;3.70;;;2.07;;
35462;SDS011;21578;47.892;9.970;2022-11-02T22:16:13;16.93;;;9.60;;
35462;SDS011;21578;47.892;9.970;2022-11-02T22:21:01;18.63;;;10.17;;
35462;SDS011;21578;47.892;9.970;2022-11-02T22:25:55;10.47;;;4.93;;
35462;SDS011;21578;47.892;9.970;2022-11-02T22:30:44;12.13;;;5.20;;
35462;SDS011;21578;47.892;9.970;2022-11-02T22:35:31;10.70;;;3.50;;
35462;SDS011;21578;47.892;9.970;2022-11-02T22:40:20;5.50;;;2.77;;
35462;SDS011;21578;47.892;9.970;2022-11-02T22:45:08;8.77;;;4.20;;
35462;SDS011;21578;47.892;9.970;2022-11-02T22:49:57;10.30;;;5.83;;
35462;SDS011;21578;47.892;9.970;2022-11-02T22:54:44;11.37;;;6.53;;
35462;SDS011;21578;47.892;9.970;2022-11-02T22:59:31;9.03;;;4.87;;
35462;SDS011;21578;47.892;9.970;2022-11-02T23:04:18;4.87;;;3.57;;
35462;SDS011;21578;47.892;9.970;2022-11-02T23:09:06;4.20;;;1.70;;
35462;SDS011;21578;47.892;9.970;2022-11-02T23:13:56;4.17;;;2.93;;
35462;SDS011;21578;47.892;9.970;2022-11-02T23:18:44;7.80;;;4.87;;
35462;SDS011;21578;47.892;9.970;2022-11-02T23:23:48;3.60;;;2.57;;
35462;SDS011;21578;47.892;9.970;2022-11-02T23:28:53;6.07;;;3.40;;
35462;SDS011;21578;47.892;9.970;2022-11-02T23:33:58;6.30;;;4.07;;
35462;SDS011;21578;47.892;9.970;2022-11-02T23:38:45;3.10;;;2.60;;
35462;SDS011;21578;47.892;9.970;2022-11-02T23:43:53;2.70;;;2.10;;
35462;SDS011;21578;47.892;9.970;2022-11-02T23:48:55;2.13;;;1.70;;
35462;SDS011;21578;47.892;9.970;2022-11-02T23:53:42;4.90;;;2.33;;
35462;SDS011;21578;47.892;9.970;2022-11-02T23:58:46;3.17;;;1.60;;
